createdAt,value
2022-12-31T00:01:25.213Z,0.80
2022-12-31T00:03:54.496Z,0.70
2022-12-31T00:06:25.344Z,2.50
2022-12-31T00:08:55.034Z,0.80
2022-12-31T00:11:25.273Z,0.70
2022-12-31T00:13:54.466Z,1.33
2022-12-31T00:16:26.700Z,0.80
2022-12-31T00:18:59.092Z,0.73
2022-12-31T00:21:28.708Z,1.30
2022-12-31T00:23:57.833Z,0.70
2022-12-31T00:26:28.540Z,0.70
2022-12-31T00:28:58.018Z,1.47
2022-12-31T00:31:31.122Z,1.80
2022-12-31T00:34:00.375Z,2.27
2022-12-31T00:36:30.647Z,0.80
2022-12-31T00:39:00.736Z,0.80
2022-12-31T00:41:30.177Z,0.90
2022-12-31T00:43:59.025Z,0.80
2022-12-31T00:46:29.254Z,0.90
2022-12-31T00:48:57.848Z,0.70
2022-12-31T00:51:27.550Z,1.27
2022-12-31T00:53:58.276Z,0.70
2022-12-31T00:56:28.891Z,4.00
2022-12-31T00:58:57.670Z,0.70
2022-12-31T01:01:30.028Z,0.80
2022-12-31T01:04:00.327Z,2.33
2022-12-31T01:06:29.064Z,1.00
2022-12-31T01:08:57.730Z,0.80
2022-12-31T01:11:29.304Z,2.30
2022-12-31T01:13:59.652Z,1.00
2022-12-31T01:16:32.436Z,0.70
2022-12-31T01:19:02.477Z,2.50
2022-12-31T01:21:31.667Z,0.73
2022-12-31T01:24:00.855Z,0.70
2022-12-31T01:26:29.736Z,0.97
2022-12-31T01:28:58.322Z,1.00
2022-12-31T01:31:26.991Z,0.93
2022-12-31T01:33:57.196Z,1.30
2022-12-31T01:36:27.309Z,0.80
2022-12-31T01:38:56.852Z,1.17
2022-12-31T01:41:27.230Z,0.70
2022-12-31T01:43:58.561Z,0.60
2022-12-31T01:46:30.785Z,0.87
2022-12-31T01:49:03.638Z,0.60
2022-12-31T01:51:34.331Z,0.70
2022-12-31T01:54:04.063Z,4.40
2022-12-31T01:56:32.789Z,0.90
2022-12-31T01:59:01.694Z,1.03
2022-12-31T02:01:32.406Z,1.53
2022-12-31T02:04:07.223Z,0.93
2022-12-31T02:06:39.206Z,1.00
2022-12-31T02:09:08.257Z,1.07
2022-12-31T02:11:37.993Z,2.07
2022-12-31T02:14:09.262Z,6.40
2022-12-31T02:16:45.346Z,1.20
2022-12-31T02:19:43.561Z,0.70
2022-12-31T02:22:22.698Z,0.70
2022-12-31T02:25:04.932Z,1.00
2022-12-31T02:27:46.338Z,2.23
2022-12-31T02:30:18.703Z,0.80
2022-12-31T02:33:10.384Z,0.70
2022-12-31T02:35:47.810Z,0.77
2022-12-31T02:38:19.552Z,0.80
2022-12-31T02:40:48.725Z,0.80
2022-12-31T02:43:17.361Z,1.00
2022-12-31T02:45:52.517Z,0.83
2022-12-31T02:48:30.571Z,1.73
2022-12-31T02:51:08.981Z,1.43
2022-12-31T02:54:02.765Z,1.10
2022-12-31T02:56:34.880Z,1.43
2022-12-31T02:59:24.265Z,1.57
2022-12-31T03:02:19.216Z,0.70
2022-12-31T03:04:51.025Z,1.50
2022-12-31T03:07:22.096Z,2.23
2022-12-31T03:09:51.031Z,1.17
2022-12-31T03:12:39.507Z,0.80
2022-12-31T03:15:19.774Z,0.80
2022-12-31T03:17:52.374Z,1.20
2022-12-31T03:20:40.487Z,2.43
2022-12-31T03:23:11.376Z,3.23
2022-12-31T03:25:39.033Z,0.80
2022-12-31T03:28:09.303Z,2.97
2022-12-31T03:30:39.151Z,0.60
2022-12-31T03:33:09.619Z,1.57
2022-12-31T03:35:39.148Z,0.70
2022-12-31T03:38:08.195Z,0.90
2022-12-31T03:40:39.336Z,2.30
2022-12-31T03:43:08.293Z,1.37
2022-12-31T03:45:37.432Z,1.73
2022-12-31T03:48:07.613Z,0.70
2022-12-31T03:50:37.590Z,0.90
2022-12-31T03:53:06.833Z,0.80
2022-12-31T03:55:35.467Z,0.70
2022-12-31T03:58:04.293Z,0.70
2022-12-31T04:00:33.025Z,0.90
2022-12-31T04:03:01.688Z,1.07
2022-12-31T04:05:30.346Z,0.90
2022-12-31T04:08:00.272Z,1.23
2022-12-31T04:10:28.893Z,1.20
2022-12-31T04:13:00.187Z,1.80
2022-12-31T04:15:28.735Z,1.10
2022-12-31T04:17:57.323Z,0.70
2022-12-31T04:20:25.935Z,4.70
2022-12-31T04:22:54.557Z,0.70
2022-12-31T04:25:24.549Z,0.70
2022-12-31T04:27:53.185Z,2.20
2022-12-31T04:30:21.798Z,1.83
2022-12-31T04:32:50.365Z,1.07
2022-12-31T04:35:19.084Z,0.63
2022-12-31T04:37:47.808Z,1.37
2022-12-31T04:40:16.489Z,0.73
2022-12-31T04:42:46.423Z,1.00
2022-12-31T04:45:15.077Z,3.07
2022-12-31T04:47:43.710Z,0.80
2022-12-31T04:50:12.320Z,0.80
2022-12-31T04:52:43.106Z,1.13
2022-12-31T04:55:12.205Z,2.20
2022-12-31T04:57:42.345Z,2.93
2022-12-31T05:00:13.672Z,0.70
2022-12-31T05:02:42.445Z,1.10
2022-12-31T05:05:11.239Z,0.70
2022-12-31T05:07:39.919Z,1.83
2022-12-31T05:10:09.199Z,0.60
2022-12-31T05:12:37.802Z,0.77
2022-12-31T05:15:07.911Z,1.73
2022-12-31T05:17:37.862Z,1.43
2022-12-31T05:20:08.003Z,1.17
2022-12-31T05:22:36.616Z,0.70
2022-12-31T05:25:06.116Z,0.70
2022-12-31T05:27:34.919Z,0.60
2022-12-31T05:30:03.494Z,0.80
2022-12-31T05:32:32.208Z,0.60
2022-12-31T05:35:02.207Z,0.67
2022-12-31T05:37:31.363Z,1.47
2022-12-31T05:40:00.117Z,1.07
2022-12-31T05:42:28.835Z,0.60
2022-12-31T05:44:57.427Z,0.80
2022-12-31T05:47:26.487Z,3.53
2022-12-31T05:49:55.285Z,2.30
2022-12-31T05:52:25.308Z,0.70
2022-12-31T05:54:54.458Z,0.70
2022-12-31T05:57:23.109Z,1.10
2022-12-31T05:59:53.456Z,2.10
2022-12-31T06:02:22.213Z,0.80
2022-12-31T06:04:50.798Z,1.10
2022-12-31T06:07:19.464Z,0.90
2022-12-31T06:09:49.443Z,0.70
2022-12-31T06:12:18.078Z,0.77
2022-12-31T06:14:46.684Z,1.30
2022-12-31T06:17:15.309Z,0.87
2022-12-31T06:19:44.112Z,1.17
2022-12-31T06:22:12.725Z,1.00
2022-12-31T06:24:42.222Z,1.40
2022-12-31T06:27:12.292Z,0.70
2022-12-31T06:29:40.925Z,0.70
2022-12-31T06:32:09.546Z,1.00
2022-12-31T06:34:38.114Z,2.17
2022-12-31T06:37:06.753Z,0.80
2022-12-31T06:39:35.350Z,2.80
2022-12-31T06:42:03.939Z,0.80
2022-12-31T06:44:34.008Z,1.00
2022-12-31T06:47:02.645Z,0.80
2022-12-31T06:49:31.273Z,5.33
2022-12-31T06:51:59.938Z,0.70
2022-12-31T06:54:28.559Z,1.47
2022-12-31T06:56:57.793Z,2.73
2022-12-31T06:59:29.262Z,1.00
2022-12-31T07:02:06.277Z,0.83
2022-12-31T07:05:06.429Z,1.60
2022-12-31T07:07:39.615Z,4.40
2022-12-31T07:10:15.882Z,3.27
2022-12-31T07:12:53.900Z,1.67
2022-12-31T07:15:38.252Z,1.53
2022-12-31T07:18:16.722Z,1.63
2022-12-31T07:20:46.010Z,5.27
2022-12-31T07:23:15.178Z,1.87
2022-12-31T07:25:48.858Z,2.00
2022-12-31T07:28:23.548Z,1.43
2022-12-31T07:31:01.291Z,2.63
2022-12-31T07:33:39.908Z,1.33
2022-12-31T07:36:15.426Z,4.77
2022-12-31T07:38:51.701Z,3.63
2022-12-31T07:41:26.218Z,1.53
2022-12-31T07:44:00.963Z,3.27
2022-12-31T07:46:34.860Z,6.40
2022-12-31T07:49:05.665Z,6.80
2022-12-31T07:51:34.959Z,5.37
2022-12-31T07:54:05.481Z,5.37
2022-12-31T07:56:37.513Z,1.87
2022-12-31T07:59:17.412Z,2.60
2022-12-31T08:01:51.894Z,2.90
2022-12-31T08:04:28.545Z,1.33
2022-12-31T08:07:04.351Z,4.00
2022-12-31T08:09:40.949Z,1.43
2022-12-31T08:12:10.146Z,1.00
2022-12-31T08:14:45.028Z,9.10
2022-12-31T08:17:16.119Z,2.70
2022-12-31T08:19:47.175Z,2.17
2022-12-31T08:22:25.177Z,1.93
2022-12-31T08:25:06.263Z,2.00
2022-12-31T08:27:38.518Z,0.87
2022-12-31T08:30:10.025Z,0.90
2022-12-31T08:32:44.252Z,1.07
2022-12-31T08:35:24.557Z,1.00
2022-12-31T08:38:00.604Z,2.80
2022-12-31T08:40:32.724Z,1.50
2022-12-31T08:43:13.422Z,4.30
2022-12-31T08:45:44.751Z,3.67
2022-12-31T08:48:21.307Z,17.33
2022-12-31T08:50:51.910Z,3.33
2022-12-31T08:53:21.088Z,1.40
2022-12-31T08:55:51.275Z,1.63
2022-12-31T08:58:29.056Z,2.30
2022-12-31T09:00:59.308Z,0.83
2022-12-31T09:03:36.432Z,2.20
2022-12-31T09:06:13.319Z,1.10
2022-12-31T09:08:47.678Z,2.50
2022-12-31T09:11:23.065Z,1.80
2022-12-31T09:14:06.439Z,1.90
2022-12-31T09:16:41.740Z,1.40
2022-12-31T09:19:11.460Z,1.20
2022-12-31T09:21:44.327Z,3.70
2022-12-31T09:24:14.211Z,2.73
2022-12-31T09:26:50.520Z,1.20
2022-12-31T09:29:29.868Z,2.83
2022-12-31T09:32:02.436Z,4.57
2022-12-31T09:34:37.385Z,17.70
2022-12-31T09:37:13.791Z,5.93
2022-12-31T09:39:43.626Z,2.50
2022-12-31T09:42:38.785Z,1.87
2022-12-31T09:45:29.802Z,1.97
2022-12-31T09:48:32.366Z,1.53
2022-12-31T09:51:10.415Z,1.20
2022-12-31T09:54:06.192Z,0.97
2022-12-31T09:56:37.645Z,1.47
2022-12-31T09:59:15.179Z,1.57
2022-12-31T10:01:49.716Z,1.40
2022-12-31T10:04:39.389Z,0.80
2022-12-31T10:07:22.500Z,1.93
2022-12-31T10:10:01.668Z,1.40
2022-12-31T10:12:58.204Z,1.20
2022-12-31T10:15:49.829Z,1.00
2022-12-31T10:18:29.942Z,1.97
2022-12-31T10:21:07.342Z,1.10
2022-12-31T10:23:52.307Z,1.00
2022-12-31T10:26:42.624Z,0.80
2022-12-31T10:29:26.277Z,4.23
2022-12-31T10:32:05.495Z,0.97
2022-12-31T10:34:41.790Z,1.10
2022-12-31T10:37:14.380Z,1.37
2022-12-31T10:39:51.342Z,1.33
2022-12-31T10:42:59.374Z,1.00
2022-12-31T10:46:02.717Z,1.17
2022-12-31T10:48:57.413Z,1.00
2022-12-31T10:52:02.506Z,3.03
2022-12-31T10:55:15.737Z,2.13
2022-12-31T10:58:16.936Z,1.43
2022-12-31T11:00:53.818Z,2.20
2022-12-31T11:03:40.243Z,6.47
2022-12-31T11:06:37.394Z,1.10
2022-12-31T11:09:40.919Z,0.83
2022-12-31T11:12:22.446Z,0.90
2022-12-31T11:15:08.896Z,1.97
2022-12-31T11:17:47.566Z,1.30
2022-12-31T11:20:39.110Z,0.90
2022-12-31T11:23:17.702Z,0.77
2022-12-31T11:25:56.310Z,1.43
2022-12-31T11:28:49.615Z,0.70
2022-12-31T11:31:32.630Z,0.80
2022-12-31T11:34:14.912Z,1.60
2022-12-31T11:36:52.395Z,2.30
2022-12-31T11:39:36.397Z,2.00
2022-12-31T11:42:16.265Z,1.50
2022-12-31T11:44:48.349Z,2.93
2022-12-31T11:48:27.976Z,1.40
2022-12-31T11:50:45.757Z,1.63
2022-12-31T11:53:26.219Z,2.40
2022-12-31T11:56:01.524Z,1.87
2022-12-31T11:58:30.306Z,1.17
2022-12-31T12:01:01.987Z,1.60
2022-12-31T12:03:30.701Z,2.70
2022-12-31T12:06:00.947Z,0.90
2022-12-31T12:08:31.656Z,2.00
2022-12-31T12:11:05.226Z,1.23
2022-12-31T12:13:34.068Z,1.03
2022-12-31T12:16:04.515Z,2.23
2022-12-31T12:18:37.968Z,2.00
2022-12-31T12:21:13.851Z,2.37
2022-12-31T12:23:43.594Z,1.37
2022-12-31T12:26:29.198Z,1.10
2022-12-31T12:29:01.586Z,1.00
2022-12-31T12:31:30.572Z,1.80
2022-12-31T12:33:59.194Z,1.20
2022-12-31T12:36:29.201Z,1.33
2022-12-31T12:39:07.510Z,1.43
2022-12-31T12:41:36.130Z,2.60
2022-12-31T12:44:06.438Z,1.77
2022-12-31T12:46:37.088Z,1.47
2022-12-31T12:49:06.035Z,1.13
2022-12-31T12:51:45.539Z,2.53
2022-12-31T12:54:26.533Z,1.00
2022-12-31T12:57:00.612Z,1.10
2022-12-31T12:59:49.423Z,4.43
2022-12-31T13:02:33.069Z,4.23
2022-12-31T13:05:13.085Z,3.40
2022-12-31T13:07:52.082Z,1.23
2022-12-31T13:10:30.785Z,1.37
2022-12-31T13:13:23.450Z,1.17
2022-12-31T13:15:59.231Z,2.60
2022-12-31T13:18:37.332Z,2.70
2022-12-31T13:21:21.168Z,1.70
2022-12-31T13:23:54.132Z,1.43
2022-12-31T13:26:27.369Z,3.47
2022-12-31T13:28:57.111Z,2.03
2022-12-31T13:31:31.358Z,2.17
2022-12-31T13:34:02.483Z,1.40
2022-12-31T13:36:32.721Z,2.00
2022-12-31T13:39:04.133Z,3.30
2022-12-31T13:41:37.829Z,2.20
2022-12-31T13:44:13.228Z,1.50
2022-12-31T13:46:45.981Z,1.20
2022-12-31T13:49:18.053Z,1.80
2022-12-31T13:51:49.284Z,2.33
2022-12-31T13:54:27.875Z,3.93
2022-12-31T13:57:01.712Z,1.43
2022-12-31T13:59:33.963Z,3.63
2022-12-31T14:02:07.788Z,3.23
2022-12-31T14:04:40.342Z,2.13
2022-12-31T14:07:14.856Z,2.20
2022-12-31T14:09:46.477Z,4.93
2022-12-31T14:12:29.072Z,3.80
2022-12-31T14:15:04.636Z,9.00
2022-12-31T14:17:39.058Z,11.50
2022-12-31T14:20:15.958Z,8.53
2022-12-31T14:22:49.924Z,4.60
2022-12-31T14:25:23.260Z,5.80
2022-12-31T14:27:53.952Z,15.43
2022-12-31T14:30:23.939Z,3.87
2022-12-31T14:33:01.893Z,3.60
2022-12-31T14:35:41.625Z,3.10
2022-12-31T14:38:19.983Z,4.60
2022-12-31T14:41:01.861Z,8.37
2022-12-31T14:43:39.119Z,12.83
2022-12-31T14:46:14.297Z,8.20
2022-12-31T14:48:50.432Z,2.63
2022-12-31T14:51:19.142Z,3.10
2022-12-31T14:53:53.451Z,2.10
2022-12-31T14:56:39.092Z,5.00
2022-12-31T14:59:24.725Z,12.13
2022-12-31T15:01:53.867Z,3.27
2022-12-31T15:04:32.843Z,2.70
2022-12-31T15:07:08.146Z,5.00
2022-12-31T15:09:52.266Z,2.67
2022-12-31T15:12:48.549Z,2.90
2022-12-31T15:15:25.980Z,5.43
2022-12-31T15:18:02.691Z,4.97
2022-12-31T15:20:50.754Z,4.10
2022-12-31T15:23:22.413Z,3.83
2022-12-31T15:25:55.194Z,4.03
2022-12-31T15:28:31.745Z,5.47
2022-12-31T15:31:04.618Z,7.50
2022-12-31T15:33:35.698Z,85.13
2022-12-31T15:36:17.021Z,93.87
2022-12-31T15:38:50.491Z,98.43
2022-12-31T15:41:28.803Z,90.90
2022-12-31T15:44:02.027Z,111.77
2022-12-31T15:46:33.275Z,86.60
2022-12-31T15:49:06.780Z,84.20
2022-12-31T15:51:44.600Z,75.53
2022-12-31T15:54:22.706Z,129.40
2022-12-31T15:56:52.559Z,116.40
2022-12-31T15:59:24.516Z,115.40
2022-12-31T16:01:55.968Z,98.00
2022-12-31T16:04:27.082Z,110.33
2022-12-31T16:06:59.742Z,108.73
2022-12-31T16:09:30.551Z,96.73
2022-12-31T16:12:00.704Z,94.53
2022-12-31T16:14:35.899Z,99.10
2022-12-31T16:17:05.320Z,77.70
2022-12-31T16:19:36.081Z,56.80
2022-12-31T16:22:10.024Z,36.13
2022-12-31T16:25:02.839Z,38.87
2022-12-31T16:27:28.648Z,34.40
2022-12-31T16:30:01.982Z,22.67
2022-12-31T16:32:35.949Z,14.53
2022-12-31T16:35:10.730Z,10.20
2022-12-31T16:37:46.243Z,14.20
2022-12-31T16:40:20.153Z,13.10
2022-12-31T16:42:49.132Z,8.53
2022-12-31T16:45:25.756Z,6.63
2022-12-31T16:47:54.505Z,7.53
2022-12-31T16:50:24.660Z,19.47
2022-12-31T16:52:58.977Z,122.57
2022-12-31T16:55:30.108Z,158.87
2022-12-31T16:58:00.748Z,171.93
2022-12-31T17:00:30.765Z,206.70
2022-12-31T17:03:07.273Z,224.10
2022-12-31T17:05:55.099Z,188.97
2022-12-31T17:08:26.012Z,207.37
2022-12-31T17:10:56.450Z,225.83
2022-12-31T17:13:30.354Z,175.57
2022-12-31T17:16:01.948Z,144.27
2022-12-31T17:18:36.145Z,164.10
2022-12-31T17:21:09.302Z,119.33
2022-12-31T17:23:39.772Z,124.27
2022-12-31T17:26:11.344Z,100.80
2022-12-31T17:28:43.425Z,109.03
2022-12-31T17:31:35.272Z,109.47
2022-12-31T17:34:22.519Z,130.70
2022-12-31T17:37:02.600Z,73.83
2022-12-31T17:39:47.449Z,65.83
2022-12-31T17:42:24.727Z,50.40
2022-12-31T17:44:56.004Z,62.93
2022-12-31T17:47:33.980Z,55.60
2022-12-31T17:50:07.473Z,53.00
2022-12-31T17:52:36.055Z,52.23
2022-12-31T17:55:05.093Z,44.70
2022-12-31T17:57:33.741Z,40.47
2022-12-31T18:00:05.663Z,45.23
2022-12-31T18:02:35.705Z,48.33
2022-12-31T18:05:11.220Z,34.20
2022-12-31T18:07:39.899Z,39.23
2022-12-31T18:10:09.085Z,37.97
2022-12-31T18:12:37.980Z,32.20
2022-12-31T18:15:08.165Z,44.93
2022-12-31T18:17:38.138Z,39.27
2022-12-31T18:20:07.647Z,48.30
2022-12-31T18:22:36.459Z,48.93
2022-12-31T18:25:07.267Z,48.73
2022-12-31T18:27:35.851Z,51.13
2022-12-31T18:30:06.065Z,46.13
2022-12-31T18:32:38.650Z,52.50
2022-12-31T18:35:32.926Z,50.90
2022-12-31T18:38:01.752Z,52.17
2022-12-31T18:40:30.384Z,49.20
2022-12-31T18:43:04.648Z,45.27
2022-12-31T18:45:33.845Z,55.23
2022-12-31T18:48:03.831Z,50.23
2022-12-31T18:50:32.421Z,50.30
2022-12-31T18:53:01.065Z,46.47
2022-12-31T18:55:35.119Z,50.40
2022-12-31T18:58:03.865Z,50.70
2022-12-31T19:00:32.509Z,53.20
2022-12-31T19:03:01.174Z,52.27
2022-12-31T19:05:33.457Z,48.97
2022-12-31T19:08:02.061Z,65.73
2022-12-31T19:10:30.738Z,57.90
2022-12-31T19:12:59.400Z,65.30
2022-12-31T19:15:30.497Z,56.67
2022-12-31T19:17:59.247Z,68.50
2022-12-31T19:20:28.189Z,61.23
2022-12-31T19:22:58.688Z,61.20
2022-12-31T19:25:29.008Z,62.60
2022-12-31T19:27:57.802Z,65.33
2022-12-31T19:30:28.676Z,70.10
2022-12-31T19:32:57.362Z,55.93
2022-12-31T19:35:26.480Z,66.97
2022-12-31T19:37:56.089Z,54.77
2022-12-31T19:40:28.923Z,63.77
2022-12-31T19:42:58.303Z,62.07
2022-12-31T19:45:28.274Z,66.87
2022-12-31T19:47:57.811Z,68.10
2022-12-31T19:50:28.070Z,65.60
2022-12-31T19:52:58.821Z,68.80
2022-12-31T19:55:28.814Z,68.83
2022-12-31T19:57:57.411Z,78.20
2022-12-31T20:00:25.973Z,78.30
2022-12-31T20:02:54.700Z,90.20
2022-12-31T20:05:23.466Z,77.20
2022-12-31T20:07:52.104Z,75.53
2022-12-31T20:10:20.819Z,71.90
2022-12-31T20:12:50.729Z,65.80
2022-12-31T20:15:19.471Z,77.57
2022-12-31T20:17:48.115Z,66.13
2022-12-31T20:20:16.957Z,58.30
2022-12-31T20:22:45.578Z,51.53
2022-12-31T20:25:14.173Z,60.93
2022-12-31T20:27:42.804Z,70.43
2022-12-31T20:30:13.046Z,75.93
2022-12-31T20:32:41.688Z,92.57
2022-12-31T20:35:10.282Z,98.53
2022-12-31T20:37:38.884Z,92.90
2022-12-31T20:40:08.711Z,94.30
2022-12-31T20:42:39.874Z,84.43
2022-12-31T20:45:09.609Z,88.50
2022-12-31T20:47:39.571Z,84.23
2022-12-31T20:50:11.928Z,88.63
2022-12-31T20:52:40.777Z,85.13
2022-12-31T20:55:10.593Z,99.70
2022-12-31T20:57:39.208Z,96.87
2022-12-31T21:00:08.861Z,88.53
2022-12-31T21:02:42.755Z,87.20
2022-12-31T21:05:12.300Z,101.13
2022-12-31T21:07:41.041Z,83.87
2022-12-31T21:10:10.205Z,72.37
2022-12-31T21:12:44.046Z,80.57
2022-12-31T21:15:13.177Z,71.20
2022-12-31T21:17:43.580Z,68.23
2022-12-31T21:20:12.956Z,80.03
2022-12-31T21:22:41.631Z,86.80
2022-12-31T21:25:11.338Z,86.47
2022-12-31T21:27:39.978Z,94.77
2022-12-31T21:30:19.498Z,101.53
2022-12-31T21:32:50.087Z,108.67
2022-12-31T21:38:08.371Z,92.63
2022-12-31T21:40:37.031Z,119.83
2022-12-31T21:43:05.676Z,101.37
2022-12-31T21:45:35.187Z,100.50
2022-12-31T21:48:21.724Z,97.00
2022-12-31T21:50:52.418Z,80.97
2022-12-31T21:53:26.303Z,72.93
2022-12-31T21:56:08.894Z,75.03
2022-12-31T21:58:38.162Z,77.10
2022-12-31T22:01:24.985Z,76.10
2022-12-31T22:03:55.047Z,66.30
2022-12-31T22:06:24.574Z,71.37
2022-12-31T22:08:54.785Z,82.17
2022-12-31T22:11:25.114Z,77.13
2022-12-31T22:13:54.468Z,91.70
2022-12-31T22:16:23.731Z,208.57
2022-12-31T22:18:52.405Z,142.17
2022-12-31T22:21:23.975Z,122.13
2022-12-31T22:23:54.435Z,135.20
2022-12-31T22:26:24.534Z,148.97
2022-12-31T22:28:58.805Z,119.37
2022-12-31T22:31:29.887Z,123.97
2022-12-31T22:33:59.139Z,143.13
2022-12-31T22:36:29.097Z,133.80
2022-12-31T22:38:58.827Z,152.73
2022-12-31T22:41:28.375Z,156.37
2022-12-31T22:44:03.536Z,151.43
2022-12-31T22:46:33.784Z,145.23
2022-12-31T22:49:03.870Z,145.13
2022-12-31T22:51:58.739Z,141.20
2022-12-31T22:54:22.624Z,155.30
2022-12-31T22:56:51.189Z,151.27
2022-12-31T22:59:19.853Z,128.30
2022-12-31T23:01:48.522Z,145.70
2022-12-31T23:04:17.465Z,312.50
2022-12-31T23:06:47.477Z,734.57
2022-12-31T23:09:35.092Z,879.17
2022-12-31T23:12:04.380Z,714.67
2022-12-31T23:14:50.709Z,670.60
2022-12-31T23:17:42.497Z,635.67
2022-12-31T23:20:31.446Z,727.57
2022-12-31T23:23:10.632Z,687.70
2022-12-31T23:25:41.117Z,664.67
2022-12-31T23:28:12.052Z,730.07
2022-12-31T23:30:41.232Z,692.40
2022-12-31T23:33:14.868Z,629.97
2022-12-31T23:35:43.916Z,666.87
2022-12-31T23:38:16.569Z,601.17
2022-12-31T23:40:45.414Z,543.43
2022-12-31T23:43:20.098Z,524.00
2022-12-31T23:45:49.385Z,513.00
2022-12-31T23:48:17.981Z,507.13
2022-12-31T23:50:52.937Z,497.37
2022-12-31T23:53:24.365Z,488.50
2022-12-31T23:55:53.654Z,487.57
2022-12-31T23:58:23.168Z,471.03
